METAR & TAF

[Source: ADDS]
METAR
LIPL 121355Z 27006KT CAVOK 29/19 Q1017 RMK BKN BKN200 VIS MIN 9999 WIND THR31 28006KT WIND THR13 28006KT BLU =
LIPL 121400Z 1215/1224 30005KT CAVOK
TAF
LIPL 121400Z 1215/1224 30005KT CAVOK =

Notice: Undefined index: sun in /web/htdocs/www.154gruppovirtuale.it/home/modules/mod_wx/tmpl/default.php on line 13
Badge

Bottom B

Bottom B 1 Lorem ipsum dolor sit amet, consectetur adipisicing elit, sed do eiusmod tempor incididunt ut labore et dolore.

Badge

Bottom B

Bottom B3 Lorem ipsum dolor sit amet, consectetur adipisicing elit, sed do eiusmod tempor incididunt ut labore et dolore.

Simulation Platform

 
Badge

Bottom B

Bottom B4 Lorem ipsum dolor sit amet, consectetur adipisicing elit, sed do eiusmod tempor incididunt ut labore et dolore.